createdAt,value
2019-03-01T00:01:46.243Z,140.70
2019-03-01T00:04:41.254Z,129.03
2019-03-01T00:07:56.195Z,132.23
2019-03-01T00:10:56.081Z,143.50
2019-03-01T00:14:14.314Z,134.27
2019-03-01T00:17:42.308Z,146.17
2019-03-01T00:20:48.248Z,147.97
2019-03-01T00:23:57.445Z,136.57
2019-03-01T00:26:58.390Z,138.07
2019-03-01T00:30:26.367Z,134.07
2019-03-01T00:33:31.866Z,134.57
2019-03-01T00:36:37.030Z,133.43
2019-03-01T00:40:03.658Z,123.37
2019-03-01T00:42:57.899Z,118.03
2019-03-01T00:45:28.507Z,126.60
2019-03-01T00:47:59.121Z,121.00
2019-03-01T00:50:29.658Z,121.20
2019-03-01T00:53:00.306Z,123.97
2019-03-01T00:55:30.926Z,123.13
2019-03-01T00:58:01.431Z,119.20
2019-03-01T01:00:38.074Z,117.33
2019-03-01T01:03:08.637Z,113.37
2019-03-01T01:05:39.234Z,115.40
2019-03-01T01:08:09.879Z,116.17
2019-03-01T01:10:40.505Z,126.67
2019-03-01T01:13:11.055Z,125.40
2019-03-01T01:15:41.640Z,110.93
2019-03-01T01:18:12.208Z,116.07
2019-03-01T01:20:42.719Z,121.67
2019-03-01T01:23:13.330Z,108.93
2019-03-01T01:25:45.581Z,109.97
2019-03-01T01:28:16.051Z,125.10
2019-03-01T01:30:46.562Z,126.87
2019-03-01T01:33:17.010Z,121.63
2019-03-01T01:35:47.443Z,130.80
2019-03-01T01:38:18.509Z,143.03
2019-03-01T01:40:49.026Z,136.53
2019-03-01T01:43:19.654Z,121.40
2019-03-01T01:45:51.736Z,128.07
2019-03-01T01:48:22.398Z,126.23
2019-03-01T01:50:53.039Z,119.37
2019-03-01T01:53:23.634Z,117.87
2019-03-01T01:55:54.213Z,129.60
2019-03-01T01:58:24.761Z,112.53
2019-03-01T02:00:55.252Z,117.90
2019-03-01T02:03:25.833Z,114.40
2019-03-01T02:05:56.682Z,115.43
2019-03-01T02:08:28.028Z,111.43
2019-03-01T02:10:58.715Z,110.73
2019-03-01T02:13:29.133Z,122.60
2019-03-01T02:15:59.654Z,115.90
2019-03-01T02:18:30.140Z,115.40
2019-03-01T02:21:00.691Z,126.73
2019-03-01T02:23:31.249Z,132.60
2019-03-01T02:26:01.637Z,127.93
2019-03-01T02:28:32.029Z,118.57
2019-03-01T02:31:03.791Z,125.13
2019-03-01T02:33:34.270Z,123.30
2019-03-01T02:36:04.795Z,134.73
2019-03-01T02:38:35.211Z,123.33
2019-03-01T02:41:06.442Z,127.93
2019-03-01T02:43:37.050Z,115.00
2019-03-01T02:46:07.559Z,118.33
2019-03-01T02:48:38.003Z,123.77
2019-03-01T02:51:08.675Z,117.50
2019-03-01T02:53:39.098Z,109.57
2019-03-01T02:56:09.537Z,116.73
2019-03-01T02:58:40.016Z,108.80
2019-03-01T03:01:10.806Z,116.60
2019-03-01T03:03:41.229Z,112.57
2019-03-01T03:06:30.558Z,116.40
2019-03-01T03:09:01.107Z,122.63
2019-03-01T03:11:31.652Z,123.00
2019-03-01T03:14:02.253Z,111.33
2019-03-01T03:16:32.767Z,123.50
2019-03-01T03:19:03.324Z,134.43
2019-03-01T03:21:33.825Z,138.87
2019-03-01T03:24:04.588Z,149.80
2019-03-01T03:26:35.031Z,142.00
2019-03-01T03:29:05.571Z,134.20
2019-03-01T03:31:36.042Z,129.27
2019-03-01T03:34:06.855Z,105.77
2019-03-01T03:36:37.252Z,124.33
2019-03-01T03:39:10.527Z,122.13
2019-03-01T03:41:41.276Z,119.77
2019-03-01T03:44:12.412Z,161.17
2019-03-01T03:46:42.941Z,156.27
2019-03-01T03:49:13.496Z,145.30
2019-03-01T03:51:43.909Z,134.57
2019-03-01T03:54:14.271Z,140.37
2019-03-01T03:56:44.781Z,135.70
2019-03-01T03:59:15.438Z,136.00
2019-03-01T04:01:45.996Z,127.70
2019-03-01T04:04:16.556Z,125.30
2019-03-01T04:06:47.297Z,122.00
2019-03-01T04:09:17.909Z,154.60
2019-03-01T04:11:48.331Z,130.77
2019-03-01T04:14:19.496Z,126.37
2019-03-01T04:16:50.041Z,112.87
2019-03-01T04:19:20.494Z,118.43
2019-03-01T04:21:50.979Z,123.47
2019-03-01T04:24:21.520Z,141.23
2019-03-01T04:26:52.027Z,135.47
2019-03-01T04:29:22.638Z,137.70
2019-03-01T04:31:53.139Z,130.90
2019-03-01T04:34:23.492Z,167.87
2019-03-01T04:36:53.917Z,193.90
2019-03-01T04:39:24.453Z,164.73
2019-03-01T04:41:54.806Z,185.57
2019-03-01T04:44:25.201Z,185.33
2019-03-01T04:46:55.751Z,180.53
2019-03-01T04:49:26.350Z,190.47
2019-03-01T04:51:56.876Z,173.27
2019-03-01T04:54:27.366Z,177.53
2019-03-01T04:56:57.853Z,199.83
2019-03-01T04:59:28.349Z,213.13
2019-03-01T05:01:58.736Z,220.53
2019-03-01T05:04:29.152Z,195.67
2019-03-01T05:06:59.660Z,163.63
2019-03-01T05:09:30.501Z,134.77
2019-03-01T05:12:00.993Z,122.37
2019-03-01T05:14:31.399Z,129.43
2019-03-01T05:17:01.931Z,141.67
2019-03-01T05:19:32.251Z,122.70
2019-03-01T05:22:02.717Z,119.93
2019-03-01T05:24:33.385Z,118.53
2019-03-01T05:27:03.902Z,123.53
2019-03-01T05:29:34.387Z,115.10
2019-03-01T05:32:04.972Z,115.67
2019-03-01T05:34:35.381Z,131.10
2019-03-01T05:37:08.090Z,121.53
2019-03-01T05:39:38.637Z,120.90
2019-03-01T05:42:09.162Z,116.83
2019-03-01T05:44:39.707Z,121.10
2019-03-01T05:47:10.343Z,123.47
2019-03-01T05:49:40.951Z,121.63
2019-03-01T05:52:11.669Z,129.13
2019-03-01T05:54:42.173Z,127.40
2019-03-01T05:57:12.516Z,115.80
2019-03-01T05:59:43.367Z,113.40
2019-03-01T06:02:57.126Z,122.63
2019-03-01T06:05:38.844Z,153.10
2019-03-01T06:08:54.204Z,180.17
2019-03-01T06:11:54.506Z,146.83
2019-03-01T06:15:13.192Z,150.93
2019-03-01T06:18:12.173Z,151.63
2019-03-01T06:21:14.202Z,156.80
2019-03-01T06:24:31.527Z,152.20
2019-03-01T06:27:47.949Z,148.10
2019-03-01T06:31:02.446Z,147.13
2019-03-01T06:34:06.608Z,139.57
2019-03-01T06:36:55.682Z,139.60
2019-03-01T06:40:21.257Z,133.77
2019-03-01T06:43:38.085Z,130.80
2019-03-01T06:47:06.050Z,128.80
2019-03-01T06:49:55.529Z,134.83
2019-03-01T06:52:26.470Z,138.60
2019-03-01T06:54:56.949Z,129.97
2019-03-01T06:57:27.693Z,125.13
2019-03-01T06:59:58.257Z,121.20
2019-03-01T07:02:40.892Z,129.33
2019-03-01T07:05:11.836Z,124.80
2019-03-01T07:07:42.566Z,140.47
2019-03-01T07:10:23.875Z,110.40
2019-03-01T07:12:54.671Z,142.87
2019-03-01T07:15:25.136Z,120.90
2019-03-01T07:17:55.617Z,139.20
2019-03-01T07:20:26.139Z,123.33
2019-03-01T07:22:56.714Z,120.33
2019-03-01T07:25:27.240Z,125.27
2019-03-01T07:27:57.802Z,128.73
2019-03-01T07:30:28.366Z,123.63
2019-03-01T07:32:59.859Z,114.73
2019-03-01T07:35:30.425Z,120.57
2019-03-01T07:38:00.901Z,111.83
2019-03-01T07:40:32.179Z,115.93
2019-03-01T07:43:02.793Z,102.63
2019-03-01T07:45:33.341Z,103.50
2019-03-01T07:48:04.008Z,101.53
2019-03-01T07:50:34.716Z,100.80
2019-03-01T07:53:05.130Z,92.73
2019-03-01T07:55:35.752Z,93.77
2019-03-01T07:58:21.534Z,98.10
2019-03-01T08:00:53.509Z,90.63
2019-03-01T08:03:24.563Z,93.03
2019-03-01T08:05:54.952Z,102.90
2019-03-01T08:08:25.517Z,100.57
2019-03-01T08:10:56.430Z,104.73
2019-03-01T08:13:28.076Z,89.53
2019-03-01T08:15:58.981Z,95.40
2019-03-01T08:18:29.431Z,95.10
2019-03-01T08:20:59.982Z,97.33
2019-03-01T08:23:31.813Z,93.50
2019-03-01T08:26:03.587Z,85.73
2019-03-01T08:28:34.183Z,90.43
2019-03-01T08:31:04.797Z,82.40
2019-03-01T08:33:35.439Z,88.10
2019-03-01T08:36:06.949Z,97.40
2019-03-01T08:38:37.769Z,89.23
2019-03-01T08:41:08.349Z,83.00
2019-03-01T08:43:38.946Z,82.40
2019-03-01T08:46:10.521Z,82.80
2019-03-01T08:48:41.184Z,78.90
2019-03-01T08:51:11.785Z,73.43
2019-03-01T08:53:42.461Z,75.63
2019-03-01T08:56:14.678Z,69.43
2019-03-01T08:58:45.068Z,70.37
2019-03-01T09:01:16.241Z,65.43
2019-03-01T09:03:54.566Z,64.43
2019-03-01T09:06:25.175Z,70.90
2019-03-01T09:08:55.686Z,69.53
2019-03-01T09:11:26.358Z,63.80
2019-03-01T09:13:56.867Z,74.77
2019-03-01T09:16:27.364Z,75.23
2019-03-01T09:18:57.963Z,74.57
2019-03-01T09:21:29.049Z,86.27
2019-03-01T09:23:59.636Z,75.20
2019-03-01T09:26:30.197Z,67.00
2019-03-01T09:29:00.771Z,66.30
2019-03-01T09:31:31.425Z,66.47
2019-03-01T09:34:02.082Z,64.83
2019-03-01T09:36:42.743Z,66.87
2019-03-01T09:39:14.445Z,65.70
2019-03-01T09:41:45.704Z,66.30
2019-03-01T09:44:16.365Z,72.73
2019-03-01T09:46:46.871Z,76.83
2019-03-01T09:49:17.833Z,66.03
2019-03-01T09:51:50.041Z,65.97
2019-03-01T09:54:20.618Z,66.83
2019-03-01T09:56:50.988Z,65.17
2019-03-01T09:59:21.592Z,68.07
2019-03-01T10:01:52.366Z,64.53
2019-03-01T10:04:22.779Z,67.80
2019-03-01T10:06:53.341Z,62.00
2019-03-01T10:09:23.822Z,68.53
2019-03-01T10:11:54.554Z,65.80
2019-03-01T10:14:25.053Z,68.27
2019-03-01T10:16:56.880Z,69.80
2019-03-01T10:19:27.529Z,66.67
2019-03-01T10:21:57.931Z,72.37
2019-03-01T10:24:28.601Z,64.00
2019-03-01T10:26:58.991Z,60.27
2019-03-01T10:29:29.417Z,75.77
2019-03-01T10:32:00.003Z,68.57
2019-03-01T10:34:30.665Z,64.70
2019-03-01T10:37:01.352Z,66.80
2019-03-01T10:39:31.775Z,61.97
2019-03-01T10:42:02.267Z,70.30
2019-03-01T10:44:32.611Z,62.50
2019-03-01T10:47:03.019Z,69.10
2019-03-01T10:49:34.422Z,74.10
2019-03-01T10:52:05.134Z,80.37
2019-03-01T10:54:35.661Z,66.40
2019-03-01T10:57:06.110Z,70.50
2019-03-01T10:59:36.506Z,64.30
2019-03-01T11:02:07.147Z,67.13
2019-03-01T11:04:37.646Z,66.57
2019-03-01T11:07:08.129Z,66.57
2019-03-01T11:09:38.643Z,74.57
2019-03-01T11:12:09.494Z,78.07
2019-03-01T11:14:39.855Z,80.03
2019-03-01T11:17:10.408Z,84.37
2019-03-01T11:19:40.778Z,73.33
2019-03-01T11:22:11.325Z,83.00
2019-03-01T11:24:41.760Z,81.10
2019-03-01T11:27:13.130Z,86.23
2019-03-01T11:29:43.812Z,85.07
2019-03-01T11:32:14.212Z,84.83
2019-03-01T11:34:44.693Z,83.63
2019-03-01T11:37:15.286Z,85.97
2019-03-01T11:39:45.802Z,83.03
2019-03-01T11:42:16.427Z,86.50
2019-03-01T11:44:46.897Z,87.30
2019-03-01T11:47:17.562Z,81.70
2019-03-01T11:49:48.070Z,86.33
2019-03-01T11:52:18.534Z,83.37
2019-03-01T11:54:49.518Z,85.87
2019-03-01T11:57:20.006Z,81.37
2019-03-01T11:59:50.489Z,86.97
2019-03-01T12:02:21.218Z,87.03
2019-03-01T12:04:51.593Z,95.10
2019-03-01T12:07:22.021Z,78.33
2019-03-01T12:09:52.637Z,81.43
2019-03-01T12:12:23.796Z,77.07
2019-03-01T12:14:54.225Z,88.23
2019-03-01T12:17:24.761Z,83.00
2019-03-01T12:19:55.157Z,84.23
2019-03-01T12:22:25.632Z,91.87
2019-03-01T12:24:56.098Z,91.93
2019-03-01T12:27:26.556Z,88.97
2019-03-01T12:29:57.035Z,91.70
2019-03-01T12:32:27.463Z,87.90
2019-03-01T12:34:57.915Z,94.07
2019-03-01T12:37:28.425Z,87.87
2019-03-01T12:39:58.935Z,93.97
2019-03-01T12:42:29.415Z,100.57
2019-03-01T12:44:59.808Z,103.90
2019-03-01T12:47:30.436Z,107.07
2019-03-01T12:50:01.146Z,107.57
2019-03-01T12:52:31.762Z,107.83
2019-03-01T12:55:04.778Z,101.17
2019-03-01T12:57:35.375Z,105.97
2019-03-01T13:00:09.667Z,104.47
2019-03-01T13:02:40.519Z,92.30
2019-03-01T13:05:12.251Z,94.87
2019-03-01T13:07:42.900Z,100.73
2019-03-01T13:10:17.833Z,107.00
2019-03-01T13:12:48.526Z,101.57
2019-03-01T13:15:19.600Z,97.73
2019-03-01T13:17:50.588Z,109.77
2019-03-01T13:20:21.235Z,102.83
2019-03-01T13:22:51.841Z,110.20
2019-03-01T13:25:25.818Z,111.17
2019-03-01T13:27:54.772Z,105.23
2019-03-01T13:30:25.479Z,110.97
2019-03-01T13:33:02.424Z,108.93
2019-03-01T13:35:31.687Z,108.93
2019-03-01T13:38:03.899Z,107.63
2019-03-01T13:40:34.713Z,114.60
2019-03-01T13:43:05.481Z,110.63
2019-03-01T13:45:36.212Z,113.73
2019-03-01T13:48:06.847Z,112.07
2019-03-01T13:50:41.560Z,103.97
2019-03-01T13:53:11.129Z,99.40
2019-03-01T13:55:41.598Z,107.90
2019-03-01T13:58:12.025Z,99.70
2019-03-01T14:00:45.627Z,115.40
2019-03-01T14:03:14.899Z,103.37
2019-03-01T14:05:45.481Z,101.07
2019-03-01T14:08:15.949Z,99.77
2019-03-01T14:10:46.485Z,104.57
2019-03-01T14:13:17.079Z,102.13
2019-03-01T14:15:48.151Z,115.77
2019-03-01T14:18:18.746Z,114.77
2019-03-01T14:20:49.349Z,108.40
2019-03-01T14:23:21.213Z,109.27
2019-03-01T14:25:55.483Z,106.53
2019-03-01T14:28:25.941Z,99.97
2019-03-01T14:30:57.848Z,92.80
2019-03-01T14:33:29.957Z,99.63
2019-03-01T14:36:02.699Z,91.23
2019-03-01T14:38:33.672Z,102.53
2019-03-01T14:41:04.326Z,107.87
2019-03-01T14:43:35.439Z,100.87
2019-03-01T14:46:08.858Z,106.53
2019-03-01T14:48:39.481Z,102.53
2019-03-01T14:51:11.843Z,104.70
2019-03-01T14:53:42.556Z,96.97
2019-03-01T14:56:25.202Z,104.53
2019-03-01T14:59:24.423Z,107.57
2019-03-01T15:02:16.983Z,104.57
2019-03-01T15:04:47.631Z,90.93
2019-03-01T15:07:18.251Z,119.47
2019-03-01T15:09:49.455Z,100.73
2019-03-01T15:12:29.570Z,104.97
2019-03-01T15:15:00.399Z,109.47
2019-03-01T15:17:30.981Z,115.60
2019-03-01T15:20:03.685Z,112.10
2019-03-01T15:22:45.592Z,106.27
2019-03-01T15:25:18.221Z,115.10
2019-03-01T15:27:54.740Z,103.83
2019-03-01T15:30:29.473Z,100.83
2019-03-01T15:33:00.098Z,107.20
2019-03-01T15:35:30.824Z,101.00
2019-03-01T15:38:02.690Z,109.40
2019-03-01T15:40:36.863Z,100.87
2019-03-01T15:43:09.104Z,98.47
2019-03-01T15:45:45.136Z,107.53
2019-03-01T15:48:15.897Z,107.23
2019-03-01T15:50:46.653Z,102.17
2019-03-01T15:53:17.282Z,119.17
2019-03-01T15:55:50.446Z,105.20
2019-03-01T15:58:24.249Z,100.73
2019-03-01T16:00:55.986Z,93.33
2019-03-01T16:03:27.449Z,104.93
2019-03-01T16:05:58.067Z,111.43
2019-03-01T16:08:28.680Z,111.33
2019-03-01T16:11:01.434Z,107.77
2019-03-01T16:13:37.482Z,117.10
2019-03-01T16:18:43.456Z,114.47
2019-03-01T16:21:15.674Z,113.07
2019-03-01T16:23:46.280Z,120.27
2019-03-01T16:26:29.422Z,122.43
2019-03-01T16:28:56.131Z,117.93
2019-03-01T16:31:32.068Z,133.83
2019-03-01T16:34:05.282Z,122.43
2019-03-01T16:36:41.159Z,126.23
2019-03-01T16:39:20.523Z,123.90
2019-03-01T16:41:52.003Z,124.87
2019-03-01T16:44:23.981Z,145.60
2019-03-01T16:46:54.629Z,139.47
2019-03-01T16:49:28.941Z,120.83
2019-03-01T16:52:00.791Z,127.27
2019-03-01T16:54:31.361Z,121.33
2019-03-01T16:57:01.972Z,121.03
2019-03-01T16:59:33.646Z,125.37
2019-03-01T17:02:06.609Z,73.43
2019-03-01T17:04:40.592Z,94.23
2019-03-01T17:07:18.105Z,59.53
2019-03-01T17:09:51.342Z,70.87
2019-03-01T17:12:26.152Z,59.37
2019-03-01T17:15:01.241Z,64.07
2019-03-01T17:17:36.843Z,59.07
2019-03-01T17:20:12.867Z,55.83
2019-03-01T17:22:50.194Z,54.87
2019-03-01T17:25:26.751Z,57.07
2019-03-01T17:28:04.081Z,56.87
2019-03-01T17:30:34.801Z,53.20
2019-03-01T17:33:05.384Z,53.93
2019-03-01T17:35:41.854Z,62.57
2019-03-01T17:38:13.655Z,55.83
2019-03-01T17:40:45.161Z,58.93
2019-03-01T17:43:18.745Z,61.50
2019-03-01T17:45:54.481Z,60.73
2019-03-01T17:48:25.216Z,61.47
2019-03-01T17:51:00.443Z,61.70
2019-03-01T17:53:32.528Z,57.63
2019-03-01T17:56:12.231Z,60.60
2019-03-01T17:58:42.792Z,59.63
2019-03-01T18:01:16.742Z,61.37
2019-03-01T18:03:49.870Z,58.57
2019-03-01T18:06:40.240Z,62.63
2019-03-01T18:09:13.449Z,62.57
2019-03-01T18:11:48.585Z,63.47
2019-03-01T18:14:20.301Z,65.33
2019-03-01T18:16:50.918Z,62.80
2019-03-01T18:19:27.795Z,69.27
2019-03-01T18:21:59.911Z,65.37
2019-03-01T18:24:34.225Z,68.23
2019-03-01T18:27:17.858Z,74.00
2019-03-01T18:29:49.783Z,73.90
2019-03-01T18:32:26.321Z,67.97
2019-03-01T18:35:02.583Z,72.80
2019-03-01T18:37:39.431Z,74.93
2019-03-01T18:40:16.549Z,77.47
2019-03-01T18:42:51.932Z,75.60
2019-03-01T18:45:27.388Z,72.57
2019-03-01T18:48:04.986Z,85.73
2019-03-01T18:50:43.267Z,84.77
2019-03-01T18:53:20.007Z,75.13
2019-03-01T18:55:58.544Z,86.43
2019-03-01T18:58:31.425Z,105.37
2019-03-01T19:01:07.721Z,81.23
2019-03-01T19:03:44.434Z,71.67
2019-03-01T19:06:19.597Z,70.73
2019-03-01T19:08:52.268Z,78.07
2019-03-01T19:11:23.290Z,78.73
2019-03-01T19:13:55.265Z,78.63
2019-03-01T19:16:28.588Z,67.87
2019-03-01T19:19:04.845Z,74.73
2019-03-01T19:21:39.001Z,68.90
2019-03-01T19:24:13.925Z,73.27
2019-03-01T19:26:54.544Z,75.30
2019-03-01T19:29:27.708Z,75.83
2019-03-01T19:32:05.887Z,67.87
2019-03-01T19:34:38.861Z,60.20
2019-03-01T19:37:13.347Z,68.20
2019-03-01T19:39:41.922Z,64.07
2019-03-01T19:42:18.621Z,76.33
2019-03-01T19:45:04.674Z,69.10
2019-03-01T19:47:39.317Z,68.33
2019-03-01T19:50:21.838Z,69.63
2019-03-01T19:52:57.856Z,74.47
2019-03-01T19:55:33.736Z,75.83
2019-03-01T19:58:08.697Z,79.10
2019-03-01T20:00:42.231Z,80.20
2019-03-01T20:03:13.842Z,92.23
2019-03-01T20:05:47.962Z,81.43
2019-03-01T20:08:18.856Z,84.67
2019-03-01T20:10:51.028Z,76.97
2019-03-01T20:13:27.216Z,65.67
2019-03-01T20:15:59.265Z,80.40
2019-03-01T20:18:35.776Z,105.23
2019-03-01T20:21:10.557Z,87.37
2019-03-01T20:23:46.132Z,77.47
2019-03-01T20:26:19.511Z,73.53
2019-03-01T20:28:52.451Z,83.90
2019-03-01T20:31:27.311Z,84.23
2019-03-01T20:34:01.943Z,92.57
2019-03-01T20:36:44.460Z,85.90
2019-03-01T20:39:25.614Z,88.80
2019-03-01T20:41:58.447Z,103.53
2019-03-01T20:44:36.336Z,86.47
2019-03-01T20:47:10.366Z,78.27
2019-03-01T20:49:54.979Z,88.37
2019-03-01T20:52:27.866Z,83.50
2019-03-01T20:55:01.628Z,95.13
2019-03-01T20:57:33.756Z,101.37
2019-03-01T21:00:08.203Z,99.67
2019-03-01T21:02:42.179Z,109.47
2019-03-01T21:05:18.071Z,95.27
2019-03-01T21:07:53.758Z,94.27
2019-03-01T21:10:23.806Z,90.43
2019-03-01T21:13:12.536Z,105.50
2019-03-01T21:15:41.875Z,95.73
2019-03-01T21:18:13.658Z,95.67
2019-03-01T21:20:45.524Z,110.33
2019-03-01T21:23:18.235Z,88.70
2019-03-01T21:25:51.296Z,85.10
2019-03-01T21:28:25.391Z,88.67
2019-03-01T21:30:59.946Z,95.00
2019-03-01T21:33:31.052Z,97.07
2019-03-01T21:36:01.612Z,104.43
2019-03-01T21:38:32.157Z,101.03
2019-03-01T21:41:06.327Z,93.13
2019-03-01T21:43:38.443Z,97.33
2019-03-01T21:46:09.121Z,102.67
2019-03-01T21:48:42.643Z,107.50
2019-03-01T21:51:19.883Z,117.70
2019-03-01T21:53:50.595Z,109.93
2019-03-01T21:56:24.248Z,97.27
2019-03-01T21:58:54.811Z,109.37
2019-03-01T22:01:25.292Z,128.30
2019-03-01T22:03:55.929Z,118.83
2019-03-01T22:06:26.435Z,126.57
2019-03-01T22:08:57.230Z,127.00
2019-03-01T22:11:27.793Z,121.10
2019-03-01T22:13:58.770Z,122.60
2019-03-01T22:16:32.711Z,109.23
2019-03-01T22:19:01.791Z,112.93
2019-03-01T22:21:32.361Z,105.13
2019-03-01T22:24:03.007Z,110.37
2019-03-01T22:26:35.230Z,116.00
2019-03-01T22:29:08.878Z,119.83
2019-03-01T22:31:39.655Z,114.53
2019-03-01T22:34:10.336Z,122.13
2019-03-01T22:36:40.771Z,125.77
2019-03-01T22:39:13.651Z,123.23
2019-03-01T22:41:44.525Z,117.13
2019-03-01T22:44:15.287Z,122.63
2019-03-01T22:46:45.915Z,124.30
2019-03-01T22:49:16.595Z,118.67
2019-03-01T22:52:05.127Z,113.17
2019-03-01T22:54:50.617Z,124.70
2019-03-01T22:57:45.116Z,108.87
2019-03-01T23:01:20.596Z,112.80
2019-03-01T23:04:10.763Z,106.50
2019-03-01T23:06:57.216Z,127.93
2019-03-01T23:09:46.166Z,115.47
2019-03-01T23:12:31.163Z,121.30
2019-03-01T23:15:19.317Z,116.43
2019-03-01T23:18:06.500Z,115.73
2019-03-01T23:20:53.001Z,119.93
2019-03-01T23:23:24.849Z,124.27
2019-03-01T23:25:55.678Z,129.03
2019-03-01T23:28:27.727Z,130.90
2019-03-01T23:31:00.521Z,125.70
2019-03-01T23:33:33.421Z,122.43
2019-03-01T23:36:05.122Z,134.00
2019-03-01T23:38:37.443Z,125.83
2019-03-01T23:41:11.413Z,105.43
2019-03-01T23:43:43.626Z,125.70
2019-03-01T23:46:15.438Z,111.70
2019-03-01T23:48:48.915Z,122.47
2019-03-01T23:51:21.295Z,129.50
2019-03-01T23:53:53.501Z,123.53
2019-03-01T23:56:26.806Z,131.27
2019-03-01T23:58:59.469Z,158.50
